Time;durP1;ratioP1;P1;durP2;ratioP2;P2;SDS_P1;SDS_P2;PMS_P1;PMS_P2;Temp;Humidity;BMP_temperature;BMP_pressure;BME280_temperature;BME280_humidity;BME280_pressure;Samples;Min_cycle;Max_cycle;Signal;HPM_P1;HPM_P2
2021/07/02 00:01:28;;;;;;;1999.90;999.90;;;;;;;18.62;100.00;95189.94;5133000;27;20202;-67
2021/07/02 00:03:55;;;;;;;1999.90;999.90;;;;;;;18.62;100.00;95200.47;5132744;27;20222;-66
2021/07/02 00:06:22;;;;;;;1999.90;999.90;;;;;;;18.50;100.00;95209.25;5132840;27;20195;-66
2021/07/02 00:08:49;;;;;;;1999.90;999.90;;;;;;;18.53;100.00;95223.56;5133156;27;20194;-66
2021/07/02 00:11:16;;;;;;;1999.90;999.90;;;;;;;18.37;100.00;95221.06;5132704;27;20232;-65
2021/07/02 00:13:44;;;;;;;1999.90;999.90;;;;;;;18.26;100.00;95219.34;5133054;27;20226;-67
2021/07/02 00:16:11;;;;;;;1999.90;999.90;;;;;;;18.13;100.00;95224.00;5132649;27;20191;-67
2021/07/02 00:18:38;;;;;;;1999.90;999.90;;;;;;;18.08;100.00;95213.00;5133250;27;20276;-67
2021/07/02 00:21:06;;;;;;;1999.90;999.90;;;;;;;18.11;100.00;95220.19;5132761;27;20198;-65
2021/07/02 00:23:33;;;;;;;1999.90;999.90;;;;;;;18.13;100.00;95225.84;5132944;27;20199;-66
2021/07/02 00:26:00;;;;;;;1999.90;999.90;;;;;;;18.13;100.00;95226.63;5132707;27;20198;-66
2021/07/02 00:28:27;;;;;;;1999.90;999.90;;;;;;;18.16;100.00;95238.31;5132588;27;20279;-66
2021/07/02 00:30:56;;;;;;;1999.90;999.90;;;;;;;18.08;100.00;95228.78;5132513;27;20673;-66
2021/07/02 00:33:23;;;;;;;1999.90;999.90;;;;;;;18.12;100.00;95237.47;5132586;27;20218;-66
2021/07/02 00:35:50;;;;;;;1999.90;999.90;;;;;;;18.22;100.00;95242.19;5132631;27;20202;-68
2021/07/02 00:38:17;;;;;;;1999.90;999.90;;;;;;;18.31;100.00;95242.72;5132576;27;20274;-66
2021/07/02 00:40:44;;;;;;;1999.90;999.90;;;;;;;18.30;100.00;95230.66;5132490;27;20206;-68
2021/07/02 00:43:11;;;;;;;1999.90;999.90;;;;;;;18.28;100.00;95235.53;5132265;27;20198;-67
2021/07/02 00:45:38;;;;;;;1999.90;999.90;;;;;;;18.33;100.00;95249.16;5132075;27;20628;-67
2021/07/02 00:48:07;;;;;;;1999.90;999.90;;;;;;;18.36;100.00;95260.84;5132452;27;20195;-67
2021/07/02 00:50:34;;;;;;;1999.90;999.90;;;;;;;18.31;100.00;95248.75;5131922;27;20662;-67
2021/07/02 00:53:01;;;;;;;1999.90;999.90;;;;;;;18.41;100.00;95242.91;5132357;27;20572;-67
2021/07/02 00:55:29;;;;;;;1999.90;999.90;;;;;;;18.36;100.00;95239.81;5132515;27;20230;-67
2021/07/02 00:57:57;;;;;;;1999.90;999.90;;;;;;;18.38;100.00;95229.72;5134391;27;20195;-67
2021/07/02 01:00:24;;;;;;;1999.90;999.90;;;;;;;18.47;100.00;95240.78;5131792;27;20191;-67
2021/07/02 01:02:51;;;;;;;1999.90;999.90;;;;;;;18.42;100.00;95243.69;5131657;27;20265;-67
2021/07/02 01:05:20;;;;;;;1999.90;999.90;;;;;;;18.50;100.00;95245.31;5131886;27;20660;-67
2021/07/02 01:07:47;;;;;;;1999.90;999.90;;;;;;;18.32;100.00;95237.13;5131884;27;20207;-67
2021/07/02 01:10:17;;;;;;;1999.90;999.90;;;;;;;18.24;100.00;95232.81;5131918;27;20202;-67
2021/07/02 01:12:44;;;;;;;1999.90;999.90;;;;;;;18.31;100.00;95235.59;5132031;27;20194;-67
2021/07/02 01:15:20;;;;;;;1999.90;999.90;;;;;;;18.37;100.00;95241.34;5131389;27;20223;-67
2021/07/02 01:17:47;;;;;;;1999.90;999.90;;;;;;;18.22;100.00;95229.03;5131507;27;20186;-67
2021/07/02 01:20:15;;;;;;;1999.90;999.90;;;;;;;18.20;100.00;95231.25;5131390;27;20670;-66
2021/07/02 01:22:44;;;;;;;1999.90;999.90;;;;;;;18.31;100.00;95232.19;5131773;27;20906;-67
2021/07/02 01:25:12;;;;;;;1999.90;999.90;;;;;;;18.29;100.00;95237.03;5131606;27;20598;-66
2021/07/02 01:27:40;;;;;;;1999.90;999.90;;;;;;;18.29;100.00;95229.91;5131346;27;20213;-67
2021/07/02 01:30:08;;;;;;;1999.90;999.90;;;;;;;18.24;100.00;95224.94;5131245;27;20191;-66
2021/07/02 01:32:36;;;;;;;1999.90;999.90;;;;;;;18.12;100.00;95224.34;5131175;27;20662;-67
2021/07/02 01:35:03;;;;;;;1999.90;999.90;;;;;;;18.00;100.00;95235.75;5130913;27;20218;-66
2021/07/02 01:37:30;;;;;;;1999.90;999.90;;;;;;;17.73;100.00;95232.22;5131337;27;20731;-66
2021/07/02 01:39:58;;;;;;;1999.90;999.90;;;;;;;17.67;100.00;95238.84;5130994;27;20685;-65
2021/07/02 01:42:25;;;;;;;1999.90;999.90;;;;;;;17.71;100.00;95236.28;5131310;27;20194;-67
2021/07/02 01:44:52;;;;;;;1999.90;999.90;;;;;;;17.71;100.00;95233.66;5127776;27;20206;-66
2021/07/02 01:47:19;;;;;;;1999.90;999.90;;;;;;;17.79;100.00;95227.44;5130286;27;20758;-66
2021/07/02 01:49:46;;;;;;;1999.90;999.90;;;;;;;17.84;100.00;95222.66;5131038;27;20713;-67
2021/07/02 01:52:13;;;;;;;1999.90;999.90;;;;;;;17.90;100.00;95223.91;5130771;27;20201;-66
2021/07/02 01:54:40;;;;;;;1999.90;999.90;;;;;;;18.08;100.00;95227.63;5130592;27;20225;-66
2021/07/02 01:57:14;;;;;;;1999.90;999.90;;;;;;;18.24;100.00;95227.56;5130278;27;20255;-66
2021/07/02 01:59:41;;;;;;;1999.90;999.90;;;;;;;18.13;100.00;95228.50;5130489;27;20646;-67
2021/07/02 02:02:08;;;;;;;1999.90;999.90;;;;;;;18.16;100.00;95227.78;5139967;27;20233;-67
2021/07/02 02:04:36;;;;;;;1999.90;999.90;;;;;;;18.11;100.00;95222.81;5148558;27;20250;-66
2021/07/02 02:07:03;;;;;;;1999.90;999.90;;;;;;;17.99;100.00;95219.19;5139759;27;20242;-67
2021/07/02 02:09:30;;;;;;;1999.90;999.90;;;;;;;17.83;100.00;95213.25;5128829;27;20198;-66
2021/07/02 02:11:57;;;;;;;1999.90;999.90;;;;;;;17.88;100.00;95217.50;5128315;27;20190;-66
2021/07/02 02:14:26;;;;;;;1999.90;999.90;;;;;;;17.86;100.00;95220.47;5130171;27;20218;-66
2021/07/02 02:16:53;;;;;;;1999.90;999.90;;;;;;;17.94;100.00;95211.59;5130294;27;20205;-66
2021/07/02 02:19:20;;;;;;;1999.90;999.90;;;;;;;18.01;100.00;95214.38;5130592;27;20214;-67
2021/07/02 02:21:47;;;;;;;1999.90;999.90;;;;;;;18.08;100.00;95219.00;5130225;27;20259;-66
2021/07/02 02:24:15;;;;;;;1999.90;999.90;;;;;;;18.21;100.00;95220.38;5130329;27;20345;-67
2021/07/02 02:26:42;;;;;;;1999.90;999.90;;;;;;;18.19;100.00;95229.72;5129924;27;20251;-65
2021/07/02 02:29:09;;;;;;;1999.90;999.90;;;;;;;18.27;100.00;95221.63;5129773;27;20632;-66
2021/07/02 02:31:38;;;;;;;1999.90;999.90;;;;;;;18.25;100.00;95221.19;5129954;27;20194;-67
2021/07/02 02:34:05;;;;;;;1999.90;999.90;;;;;;;18.14;100.00;95222.09;5129727;27;20230;-65
2021/07/02 02:36:32;;;;;;;1999.90;999.90;;;;;;;18.08;100.00;95225.00;5129759;27;20194;-66
2021/07/02 02:38:59;;;;;;;1999.90;999.90;;;;;;;18.16;100.00;95225.16;5129827;27;20898;-66
2021/07/02 02:41:26;;;;;;;1999.90;999.90;;;;;;;18.08;100.00;95234.78;5129781;27;20279;-67
2021/07/02 02:43:54;;;;;;;1999.90;999.90;;;;;;;17.93;100.00;95230.38;5130130;27;20198;-66
2021/07/02 02:46:21;;;;;;;1999.90;999.90;;;;;;;17.86;100.00;95223.09;5109239;28;20604;-66
2021/07/02 02:48:50;;;;;;;1999.90;999.90;;;;;;;17.81;100.00;95233.88;5109285;28;20209;-67
2021/07/02 02:51:17;;;;;;;1999.90;999.90;;;;;;;17.78;100.00;95226.69;5109280;28;20232;-66
2021/07/02 02:53:44;;;;;;;1999.90;999.90;;;;;;;17.71;100.00;95228.41;5112321;28;20231;-67
2021/07/02 02:56:11;;;;;;;1999.90;999.90;;;;;;;17.65;100.00;95235.78;5128590;27;20226;-66
2021/07/02 02:58:38;;;;;;;1999.90;999.90;;;;;;;17.62;100.00;95233.88;5130079;27;20202;-66
2021/07/02 03:01:05;;;;;;;1999.90;999.90;;;;;;;17.72;100.00;95235.94;5144360;27;20217;-66
2021/07/02 03:03:32;;;;;;;1999.90;999.90;;;;;;;17.75;100.00;95232.63;5150204;27;20248;-66
2021/07/02 03:06:01;;;;;;;1999.90;999.90;;;;;;;17.76;100.00;95234.16;5150093;27;20217;-66
2021/07/02 03:08:28;;;;;;;1999.90;999.90;;;;;;;17.71;100.00;95236.28;5150432;27;20193;-66
2021/07/02 03:10:55;;;;;;;1999.90;999.90;;;;;;;17.64;100.00;95236.88;5133405;27;20440;-66
2021/07/02 03:13:22;;;;;;;1999.90;999.90;;;;;;;17.68;100.00;95248.25;5129748;27;20190;-67
2021/07/02 03:15:49;;;;;;;1999.90;999.90;;;;;;;17.81;100.00;95246.25;5133775;27;20256;-67
2021/07/02 03:18:16;;;;;;;1999.90;999.90;;;;;;;17.76;100.00;95252.56;5132941;27;20190;-67
2021/07/02 03:20:44;;;;;;;1999.90;999.90;;;;;;;17.80;100.00;95250.00;5133798;27;20194;-67
2021/07/02 03:23:13;;;;;;;1999.90;999.90;;;;;;;17.80;100.00;95255.25;5133669;27;20210;-67
2021/07/02 03:25:40;;;;;;;1999.90;999.90;;;;;;;17.84;100.00;95254.22;5132793;27;20198;-66
2021/07/02 03:28:07;;;;;;;1999.90;999.90;;;;;;;17.78;100.00;95250.34;5113124;28;20191;-68
2021/07/02 03:30:34;;;;;;;1999.90;999.90;;;;;;;17.78;100.00;95252.22;5120231;27;20191;-68
2021/07/02 03:33:01;;;;;;;1999.90;999.90;;;;;;;17.77;100.00;95254.09;5132017;27;20865;-67
2021/07/02 03:35:28;;;;;;;1999.90;999.90;;;;;;;17.84;100.00;95256.84;5129489;27;20275;-65
2021/07/02 03:37:55;;;;;;;1999.90;999.90;;;;;;;17.81;100.00;95264.66;5129561;27;20310;-65
2021/07/02 03:40:24;;;;;;;1999.90;999.90;;;;;;;17.77;100.00;95261.97;5132332;27;20190;-67
2021/07/02 03:42:51;;;;;;;1999.90;999.90;;;;;;;17.71;100.00;95265.19;5133285;27;20195;-68
2021/07/02 03:45:18;;;;;;;1999.90;999.90;;;;;;;17.77;100.00;95259.34;5131939;27;20575;-67
2021/07/02 03:47:45;;;;;;;1999.90;999.90;;;;;;;17.79;100.00;95269.47;5132977;27;20198;-65
2021/07/02 03:50:13;;;;;;;1999.90;999.90;;;;;;;17.75;100.00;95266.78;5133190;27;20195;-65
2021/07/02 03:52:40;;;;;;;1999.90;999.90;;;;;;;17.76;100.00;95276.22;5133467;27;20569;-65
2021/07/02 03:55:08;;;;;;;1999.90;999.90;;;;;;;17.81;100.00;95275.16;5133056;27;20774;-65
2021/07/02 03:57:36;;;;;;;1999.90;999.90;;;;;;;17.83;100.00;95276.34;5133293;27;20236;-66
2021/07/02 04:00:06;;;;;;;1999.90;999.90;;;;;;;17.88;100.00;95281.31;5132971;27;20198;-66
2021/07/02 04:02:33;;;;;;;1999.90;999.90;;;;;;;17.92;100.00;95284.81;5132897;27;20227;-66
2021/07/02 04:05:00;;;;;;;1999.90;999.90;;;;;;;18.06;100.00;95285.09;5131473;27;20201;-66
2021/07/02 04:07:28;;;;;;;1999.90;999.90;;;;;;;18.15;100.00;95292.00;5132820;27;20634;-66
2021/07/02 04:09:55;;;;;;;1999.90;999.90;;;;;;;18.17;100.00;95289.81;5132755;27;20198;-66
2021/07/02 04:12:23;;;;;;;1999.90;999.90;;;;;;;18.18;100.00;95286.06;5132914;27;20202;-66
2021/07/02 04:14:51;;;;;;;1999.90;999.90;;;;;;;18.21;100.00;95288.78;5132691;27;20317;-66
2021/07/02 04:17:18;;;;;;;1999.90;999.90;;;;;;;18.32;100.00;95292.38;5132713;27;20207;-67
2021/07/02 04:19:45;;;;;;;1999.90;999.90;;;;;;;18.41;100.00;95297.41;5132948;27;20255;-67
2021/07/02 04:22:12;;;;;;;1999.90;999.90;;;;;;;18.46;100.00;95297.91;5132861;27;20271;-66
2021/07/02 04:24:39;;;;;;;1999.90;999.90;;;;;;;18.64;100.00;95300.09;5132302;27;20274;-66
2021/07/02 04:27:06;;;;;;;1999.90;999.90;;;;;;;18.83;100.00;95298.19;5132918;27;20242;-66
2021/07/02 04:29:34;;;;;;;1999.90;999.90;;;;;;;18.90;100.00;95303.59;5132568;27;20198;-66
2021/07/02 04:32:02;;;;;;;1999.90;999.90;;;;;;;18.97;100.00;95302.97;5132401;27;20203;-66
2021/07/02 04:34:30;;;;;;;1999.90;999.90;;;;;;;19.27;100.00;95303.09;5132321;27;20202;-67
2021/07/02 04:36:57;;;;;;;1999.90;999.90;;;;;;;19.49;100.00;95302.31;5132669;27;20195;-65
2021/07/02 04:39:24;;;;;;;1999.90;999.90;;;;;;;19.64;100.00;95305.91;5132303;27;20194;-65
2021/07/02 04:41:51;;;;;;;1999.90;999.90;;;;;;;20.00;100.00;95313.19;5132548;27;20194;-65
2021/07/02 04:44:18;;;;;;;1999.90;999.90;;;;;;;20.11;100.00;95324.66;5132308;27;20191;-65
2021/07/02 04:46:45;;;;;;;1999.90;999.90;;;;;;;20.07;100.00;95318.56;5132262;27;20252;-67
2021/07/02 04:49:14;;;;;;;1999.90;999.90;;;;;;;20.46;99.64;95326.22;5132017;27;20205;-68
2021/07/02 04:51:41;;;;;;;1999.90;999.90;;;;;;;20.70;98.81;95327.59;5132223;27;20623;-67
2021/07/02 04:54:08;;;;;;;1999.90;999.90;;;;;;;20.57;96.35;95324.47;5132309;27;20203;-66
2021/07/02 04:56:35;;;;;;;1999.90;999.90;;;;;;;20.43;97.41;95325.06;5129278;27;20222;-66
2021/07/02 04:59:02;;;;;;;1999.90;999.90;;;;;;;20.47;97.78;95328.47;5124541;27;20194;-66
2021/07/02 05:01:29;;;;;;;1999.90;999.90;;;;;;;20.66;98.07;95324.19;5131761;27;20194;-66
2021/07/02 05:03:57;;;;;;;1999.90;999.90;;;;;;;20.72;95.96;95330.66;5131705;27;20255;-66
2021/07/02 05:06:25;;;;;;;1999.90;999.90;;;;;;;20.81;95.91;95333.78;5131683;27;20194;-65
2021/07/02 05:08:52;;;;;;;1999.90;999.90;;;;;;;20.63;96.32;95330.94;5132008;27;20227;-65
2021/07/02 05:11:19;;;;;;;1999.90;999.90;;;;;;;20.87;95.18;95332.31;5131565;27;20199;-65
2021/07/02 05:13:46;;;;;;;1999.90;999.90;;;;;;;21.07;95.02;95344.19;5131650;27;20202;-66
2021/07/02 05:16:13;;;;;;;1999.90;999.90;;;;;;;21.17;91.29;95351.50;5131331;27;20222;-67
2021/07/02 05:18:41;;;;;;;1999.90;999.90;;;;;;;20.99;88.70;95353.19;5131556;27;20195;-65
2021/07/02 05:21:08;;;;;;;1999.90;999.90;;;;;;;20.97;90.26;95356.19;5131804;27;20634;-66
2021/07/02 05:23:36;;;;;;;1999.90;999.90;;;;;;;20.85;89.11;95351.19;5131539;27;20682;-65
2021/07/02 05:26:04;;;;;;;1999.90;999.90;;;;;;;21.03;90.17;95354.75;5131889;27;20191;-66
2021/07/02 05:28:33;;;;;;;1999.90;999.90;;;;;;;21.19;89.32;95359.81;5131627;27;20198;-74
2021/07/02 05:31:00;;;;;;;1999.90;999.90;;;;;;;21.37;88.36;95358.09;5131404;27;20195;-71
2021/07/02 05:33:27;;;;;;;1999.90;999.90;;;;;;;21.66;89.88;95363.63;5131147;27;20267;-73
2021/07/02 05:35:54;;;;;;;1999.90;999.90;;;;;;;21.65;90.14;95365.50;5130865;27;20219;-74
2021/07/02 05:38:21;;;;;;;1999.90;999.90;;;;;;;21.63;90.13;95366.97;5130643;27;20201;-72
2021/07/02 05:40:55;;;;;;;1999.90;999.90;;;;;;;21.71;89.48;95368.56;5130890;27;20202;-71
2021/07/02 05:43:22;;;;;;;1999.90;999.90;;;;;;;21.46;90.58;95371.78;5131218;27;20570;-71
2021/07/02 05:45:49;;;;;;;1999.90;999.90;;;;;;;21.58;90.42;95364.69;5131150;27;20637;-71
2021/07/02 05:48:18;;;;;;;1999.90;999.90;;;;;;;21.47;92.06;95369.88;5131132;27;20866;-67
2021/07/02 05:50:46;;;;;;;1999.90;999.90;;;;;;;21.67;90.81;95371.19;5131044;27;20186;-68
2021/07/02 05:53:13;;;;;;;1999.90;999.90;;;;;;;21.75;88.33;95375.41;5131004;27;20218;-67
2021/07/02 05:55:40;;;;;;;1999.90;999.90;;;;;;;21.91;89.10;95369.84;5130565;27;20757;-68
2021/07/02 05:58:08;;;;;;;1999.90;999.90;;;;;;;21.95;89.11;95377.84;5131144;27;20198;-68
2021/07/02 06:00:35;;;;;;;1999.90;999.90;;;;;;;22.01;87.24;95377.13;5130668;27;20206;-66
2021/07/02 06:03:02;;;;;;;1999.90;999.90;;;;;;;21.96;84.81;95374.81;5130542;27;20838;-67
2021/07/02 06:05:30;;;;;;;1999.90;999.90;;;;;;;21.82;83.23;95375.44;5130815;27;20213;-67
2021/07/02 06:07:57;;;;;;;1999.90;999.90;;;;;;;21.80;82.38;95382.25;5130563;27;20990;-75
2021/07/02 06:10:26;;;;;;;1999.90;999.90;;;;;;;22.05;83.51;95393.03;5130447;27;20220;-67
2021/07/02 06:12:54;;;;;;;1999.90;999.90;;;;;;;22.07;83.25;95386.22;5130191;27;20220;-67
2021/07/02 06:15:22;;;;;;;1999.90;999.90;;;;;;;22.33;84.41;95383.34;5130142;27;20233;-73
2021/07/02 06:17:52;;;;;;;1999.90;999.90;;;;;;;22.38;82.47;95389.41;5130204;27;20205;-73
2021/07/02 06:20:22;;;;;;;1999.90;999.90;;;;;;;22.51;82.50;95385.34;5130525;27;20255;-74
2021/07/02 06:22:49;;;;;;;1999.90;999.90;;;;;;;22.64;79.95;95381.97;5130300;27;20182;-73
2021/07/02 06:25:16;;;;;;;1999.90;999.90;;;;;;;22.38;82.72;95387.53;5118210;27;20723;-72
2021/07/02 06:27:43;;;;;;;1999.90;999.90;;;;;;;22.36;86.19;95386.41;5129970;27;20207;-72
2021/07/02 06:30:12;;;;;;;1999.90;999.90;;;;;;;22.94;83.40;95383.59;5130225;27;20287;-73
2021/07/02 06:32:40;;;;;;;1999.90;999.90;;;;;;;22.41;82.42;95389.44;5130409;27;20201;-74
2021/07/02 06:35:08;;;;;;;1999.90;999.90;;;;;;;22.35;82.02;95395.47;5130304;27;20252;-73
2021/07/02 06:37:35;;;;;;;1999.90;999.90;;;;;;;22.37;82.61;95393.19;5130072;27;20689;-74
2021/07/02 06:40:03;;;;;;;1999.90;999.90;;;;;;;22.46;82.15;95390.97;5130117;27;20210;-74
2021/07/02 06:42:30;;;;;;;1999.90;999.90;;;;;;;22.56;82.05;95395.56;5130208;27;20187;-75
2021/07/02 06:44:57;;;;;;;1999.90;999.90;;;;;;;22.85;81.88;95386.63;5129989;27;20586;-74
2021/07/02 06:47:24;;;;;;;1999.90;999.90;;;;;;;22.71;80.42;95392.59;5130031;27;20190;-74
2021/07/02 06:49:53;;;;;;;1999.90;999.90;;;;;;;22.92;79.56;95407.84;5130153;27;20198;-71
2021/07/02 06:52:20;;;;;;;1999.90;999.90;;;;;;;22.97;78.48;95398.75;5129523;27;20202;-68
2021/07/02 06:54:47;;;;;;;1999.90;999.90;;;;;;;22.96;80.75;95402.56;5129674;27;20194;-67
2021/07/02 06:57:15;;;;;;;1999.90;999.90;;;;;;;22.76;79.83;95404.00;5130000;27;20230;-67
2021/07/02 06:59:42;;;;;;;1999.90;999.90;;;;;;;22.71;80.05;95397.91;5130041;27;20198;-68
2021/07/02 07:02:11;;;;;;;1999.90;999.90;;;;;;;22.92;80.74;95402.53;5129794;27;20241;-67
2021/07/02 07:04:39;;;;;;;1999.90;999.90;;;;;;;23.02;79.24;95396.50;5129938;27;20194;-67
2021/07/02 07:07:08;;;;;;;1999.90;999.90;;;;;;;23.06;78.83;95386.66;5130066;27;20194;-67
2021/07/02 07:09:36;;;;;;;1999.90;999.90;;;;;;;23.29;79.48;95388.22;5132455;27;20267;-67
2021/07/02 07:12:04;;;;;;;1999.90;999.90;;;;;;;23.34;76.65;95390.50;5130013;27;20267;-68
2021/07/02 07:14:31;;;;;;;1999.90;999.90;;;;;;;23.17;75.89;95387.44;5130210;27;20597;-68
2021/07/02 07:16:59;;;;;;;1999.90;999.90;;;;;;;23.62;78.31;95392.44;5129523;27;20222;-68
2021/07/02 07:19:28;;;;;;;1999.90;999.90;;;;;;;23.50;74.58;95393.59;5130053;27;20198;-68
2021/07/02 07:21:55;;;;;;;1999.90;999.90;;;;;;;23.27;75.33;95390.47;5129927;27;20197;-68
2021/07/02 07:24:24;;;;;;;1999.90;999.90;;;;;;;23.47;76.07;95394.31;5129996;27;20194;-67
2021/07/02 07:26:51;;;;;;;1999.90;999.90;;;;;;;23.77;79.03;95397.38;5129924;27;20198;-67
2021/07/02 07:29:18;;;;;;;1999.90;999.90;;;;;;;23.72;75.33;95399.63;5129668;27;20206;-67
2021/07/02 07:31:45;;;;;;;1999.90;999.90;;;;;;;23.81;76.77;95397.38;5129559;27;20205;-67
2021/07/02 07:34:14;;;;;;;1999.90;999.90;;;;;;;23.80;74.10;95390.56;5129816;27;20201;-67
2021/07/02 07:36:41;;;;;;;1999.90;999.90;;;;;;;23.96;73.07;95396.25;5129596;27;20230;-67
2021/07/02 07:39:08;;;;;;;1999.90;999.90;;;;;;;23.85;71.84;95404.22;5129508;27;20301;-67
2021/07/02 07:41:37;;;;;;;1999.90;999.90;;;;;;;23.63;74.30;95399.25;5129479;27;20201;-67
2021/07/02 07:44:05;;;;;;;1999.90;999.90;;;;;;;23.75;75.48;95402.31;5129798;27;20194;-67
2021/07/02 07:46:32;;;;;;;1999.90;999.90;;;;;;;23.94;73.69;95395.84;5129355;27;20195;-66
2021/07/02 07:48:59;;;;;;;1999.90;999.90;;;;;;;23.61;73.46;95389.06;5129777;27;20198;-67
2021/07/02 07:51:35;;;;;;;1999.90;999.90;;;;;;;23.62;77.60;95395.84;5129853;27;20203;-67
2021/07/02 07:54:03;;;;;;;1999.90;999.90;;;;;;;23.98;73.26;95400.00;5129749;27;20260;-67
2021/07/02 07:56:30;;;;;;;1999.90;999.90;;;;;;;24.25;76.55;95394.31;5129309;27;20747;-67
2021/07/02 07:58:58;;;;;;;1999.90;999.90;;;;;;;24.46;71.04;95399.56;5129368;27;20233;-67
2021/07/02 08:01:26;;;;;;;1999.90;999.90;;;;;;;24.13;72.73;95390.13;5132566;27;20205;-66
2021/07/02 08:03:53;;;;;;;1999.90;999.90;;;;;;;24.32;71.30;95389.72;5132697;27;20321;-67
2021/07/02 08:06:21;;;;;;;1999.90;999.90;;;;;;;24.15;72.14;95392.41;5132655;27;20195;-66
2021/07/02 08:08:48;;;;;;;1999.90;999.90;;;;;;;24.12;74.07;95395.81;5133234;27;20198;-66
2021/07/02 08:11:15;;;;;;;1999.90;999.90;;;;;;;24.02;74.38;95392.78;5132879;27;20198;-66
2021/07/02 08:13:42;;;;;;;1999.90;999.90;;;;;;;24.12;73.83;95396.56;5132852;27;20202;-66
2021/07/02 08:16:10;;;;;;;1999.90;999.90;;;;;;;24.26;70.24;95401.16;5133014;27;20245;-67
2021/07/02 08:18:37;;;;;;;1999.90;999.90;;;;;;;24.33;73.03;95393.16;5132716;27;20666;-66
2021/07/02 08:21:04;;;;;;;1999.90;999.90;;;;;;;24.41;69.21;95399.94;5132789;27;20734;-66
2021/07/02 08:23:32;;;;;;;1999.90;999.90;;;;;;;24.62;70.46;95410.50;5132589;27;20198;-66
2021/07/02 08:25:59;;;;;;;1999.90;999.90;;;;;;;24.71;68.66;95396.81;5132553;27;20195;-65
2021/07/02 08:31:12;;;;;;;1999.90;999.90;;;;;;;23.86;69.53;95400.38;5132621;27;20570;-66
2021/07/02 08:33:39;;;;;;;1999.90;999.90;;;;;;;23.75;71.28;95401.56;5132708;27;20221;-66
2021/07/02 08:36:07;;;;;;;1999.90;999.90;;;;;;;23.95;70.91;95394.72;5132651;27;20221;-66
2021/07/02 08:38:34;;;;;;;1999.90;999.90;;;;;;;24.10;68.98;95398.09;5132346;27;20247;-67
2021/07/02 08:41:02;;;;;;;1999.90;999.90;;;;;;;24.49;70.42;95396.16;5132633;27;20227;-67
2021/07/02 08:43:29;;;;;;;1999.90;999.90;;;;;;;24.75;66.77;95390.34;5132526;27;20602;-67
2021/07/02 08:45:57;;;;;;;1999.90;999.90;;;;;;;24.54;67.06;95390.44;5132255;27;20637;-66
2021/07/02 08:48:27;;;;;;;1999.90;999.90;;;;;;;24.90;68.65;95390.31;5132162;27;20194;-67
2021/07/02 08:50:55;;;;;;;1999.90;999.90;;;;;;;25.13;66.63;95382.59;5132738;27;20190;-67
2021/07/02 08:53:22;;;;;;;1999.90;999.90;;;;;;;24.95;66.67;95382.69;5131932;27;20259;-67
2021/07/02 08:55:49;;;;;;;1999.90;999.90;;;;;;;24.95;65.50;95388.00;5132278;27;20195;-66
2021/07/02 08:58:17;;;;;;;1999.90;999.90;;;;;;;25.01;68.24;95391.00;5131971;27;20202;-67
2021/07/02 09:00:45;;;;;;;1999.90;999.90;;;;;;;25.32;64.09;95378.66;5133543;27;20205;-67
2021/07/02 09:03:29;;;;;;;1999.90;999.90;;;;;;;24.84;62.62;95381.97;5132220;27;20764;-67
2021/07/02 09:05:56;;;;;;;1999.90;999.90;;;;;;;25.09;64.69;95377.28;5130355;27;20230;-66
2021/07/02 09:08:24;;;;;;;1999.90;999.90;;;;;;;25.06;63.41;95380.72;5131776;27;20195;-66
2021/07/02 09:10:51;;;;;;;1999.90;999.90;;;;;;;25.08;62.49;95375.78;5132026;27;20194;-66
2021/07/02 09:13:19;;;;;;;1999.90;999.90;;;;;;;25.11;64.41;95374.97;5131527;27;20206;-66
2021/07/02 09:15:47;;;;;;;1999.90;999.90;;;;;;;25.28;63.72;95368.03;5131709;27;20202;-67
2021/07/02 09:18:15;;;;;;;1999.90;999.90;;;;;;;25.69;66.19;95368.91;5131754;27;20205;-67
2021/07/02 09:20:45;;;;;;;1999.90;999.90;;;;;;;25.44;63.47;95370.97;5131795;27;20226;-67
2021/07/02 09:23:14;;;;;;;1999.90;999.90;;;;;;;25.38;61.12;95366.47;5131627;27;20709;-66
2021/07/02 09:25:46;;;;;;;1999.90;999.90;;;;;;;25.42;60.26;95364.53;5131754;27;20263;-67
2021/07/02 09:28:14;;;;;;;1999.90;999.90;;;;;;;25.60;61.53;95376.56;5131320;27;20187;-67
2021/07/02 09:30:43;;;;;;;1999.90;999.90;;;;;;;25.79;60.52;95366.53;5131646;27;20255;-66
2021/07/02 09:33:14;;;;;;;1999.90;999.90;;;;;;;25.79;62.05;95367.31;5131292;27;20198;-67
2021/07/02 09:35:47;;;;;;;1999.90;999.90;;;;;;;26.18;60.42;95358.94;5131800;27;20609;-66
2021/07/02 09:38:16;;;;;;;1999.90;999.90;;;;;;;25.75;59.20;95355.94;5131715;27;20207;-66
2021/07/02 09:40:44;;;;;;;1999.90;999.90;;;;;;;25.54;58.93;95359.50;5131215;27;20198;-66
2021/07/02 09:43:14;;;;;;;1999.90;999.90;;;;;;;25.59;61.42;95348.47;5131125;27;20205;-66
2021/07/02 09:45:46;;;;;;;1999.90;999.90;;;;;;;25.89;62.49;95347.06;5131492;27;20209;-66
2021/07/02 09:48:15;;;;;;;1999.90;999.90;;;;;;;25.72;61.29;95343.41;5131046;27;20237;-66
2021/07/02 09:50:50;;;;;;;1999.90;999.90;;;;;;;26.04;62.62;95349.19;5130991;27;20202;-66
2021/07/02 09:53:19;;;;;;;1999.90;999.90;;;;;;;25.90;59.48;95343.25;5131145;27;20661;-66
2021/07/02 09:55:48;;;;;;;1999.90;999.90;;;;;;;25.79;59.29;95342.59;5131133;27;20194;-66
2021/07/02 09:58:16;;;;;;;1999.90;999.90;;;;;;;25.85;58.62;95344.44;5131016;27;20578;-66
2021/07/02 10:00:47;;;;;;;1999.90;999.90;;;;;;;25.65;62.10;95336.22;5131086;27;20263;-66
2021/07/02 10:03:14;;;;;;;1999.90;999.90;;;;;;;25.72;61.56;95332.75;5130603;27;20238;-66
2021/07/02 10:05:48;;;;;;;1999.90;999.90;;;;;;;25.83;63.61;95332.66;5130655;27;20190;-66
2021/07/02 10:08:16;;;;;;;1999.90;999.90;;;;;;;25.72;62.33;95327.41;5130492;27;20239;-66
2021/07/02 10:10:43;;;;;;;1999.90;999.90;;;;;;;25.99;60.28;95322.22;5130548;27;20206;-66
2021/07/02 10:13:10;;;;;;;1999.90;999.90;;;;;;;26.18;62.99;95326.19;5130752;27;20271;-66
2021/07/02 10:15:37;;;;;;;1999.90;999.90;;;;;;;26.72;60.75;95324.44;5130593;27;20194;-66
2021/07/02 10:18:12;;;;;;;1999.90;999.90;;;;;;;27.19;58.94;95326.09;5130405;27;20225;-66
2021/07/02 10:20:40;;;;;;;1999.90;999.90;;;;;;;27.28;60.94;95321.00;5130754;27;20610;-66
2021/07/02 10:23:11;;;;;;;1999.90;999.90;;;;;;;27.45;56.76;95327.19;5130319;27;20198;-67
2021/07/02 10:25:41;;;;;;;1999.90;999.90;;;;;;;27.63;58.19;95334.97;5130837;27;20267;-66
2021/07/02 10:28:11;;;;;;;1999.90;999.90;;;;;;;27.44;55.80;95332.97;5130697;27;20209;-66
2021/07/02 10:30:40;;;;;;;1999.90;999.90;;;;;;;27.24;56.06;95324.88;5130307;27;20241;-66
2021/07/02 10:33:08;;;;;;;1999.90;999.90;;;;;;;27.14;56.80;95329.22;5130533;27;20202;-66
2021/07/02 10:35:36;;;;;;;1999.90;999.90;;;;;;;27.33;59.09;95323.19;5130470;27;20206;-66
2021/07/02 10:38:04;;;;;;;1999.90;999.90;;;;;;;27.18;55.32;95337.91;5130288;27;20223;-67
2021/07/02 10:40:41;;;;;;;1999.90;999.90;;;;;;;27.51;56.47;95330.19;5130194;27;20198;-66
2021/07/02 10:43:16;;;;;;;1999.90;999.90;;;;;;;27.54;58.47;95321.38;5130161;27;20189;-66
2021/07/02 10:46:12;;;;;;;1999.90;999.90;;;;;;;28.11;57.94;95319.25;5130066;27;20269;-65
2021/07/02 10:48:53;;;;;;;1999.90;999.90;;;;;;;27.98;51.78;95323.66;5130294;27;20213;-66
2021/07/02 10:51:45;;;;;;;1999.90;999.90;;;;;;;27.93;54.62;95321.47;5129996;27;20179;-66
2021/07/02 10:54:34;;;;;;;1999.90;999.90;;;;;;;28.13;53.45;95314.25;5130105;27;20190;-65
2021/07/02 10:57:15;;;;;;;1999.90;999.90;;;;;;;28.10;51.07;95312.34;5130256;27;20199;-66